Time;durP1;ratioP1;P1;durP2;ratioP2;P2;SDS_P1;SDS_P2;PMS_P1;PMS_P2;Temp;Humidity;BMP_temperature;BMP_pressure;BME280_temperature;BME280_humidity;BME280_pressure;Samples;Min_cycle;Max_cycle;Signal;HPM_P1;HPM_P2
2022/02/22 00:02:14;;;;;;;7.93;1.35;;;5.90;99.90;;;;;;5051041;28;20028;-78
2022/02/22 00:04:43;;;;;;;5.65;1.13;;;5.90;99.90;;;;;;5055693;28;20017;-83
2022/02/22 00:07:10;;;;;;;7.53;2.53;;;5.90;99.90;;;;;;5047521;28;20155;-83
2022/02/22 00:09:36;;;;;;;9.27;1.33;;;5.90;99.90;;;;;;5053436;28;20056;-82
2022/02/22 00:12:03;;;;;;;15.07;3.22;;;5.90;99.90;;;;;;5052104;28;20052;-83
2022/02/22 00:14:29;;;;;;;19.25;6.90;;;5.90;99.90;;;;;;5047900;28;20111;-83
2022/02/22 00:16:58;;;;;;;21.85;7.25;;;5.90;99.90;;;;;;5049547;28;20075;-79
2022/02/22 00:19:27;;;;;;;50.63;19.15;;;5.90;99.90;;;;;;5051845;28;20036;-83
2022/02/22 00:21:54;;;;;;;35.37;13.53;;;6.00;99.90;;;;;;5036630;28;20037;-74
2022/02/22 00:24:20;;;;;;;35.40;15.80;;;6.00;99.90;;;;;;5031814;28;20315;-83
2022/02/22 00:26:46;;;;;;;37.33;16.77;;;6.00;99.90;;;;;;5041979;28;20121;-83
2022/02/22 00:29:13;;;;;;;13.10;6.28;;;6.00;99.90;;;;;;5032067;28;20208;-84
2022/02/22 00:31:38;;;;;;;11.73;3.65;;;6.00;99.90;;;;;;5032393;28;20459;-83
2022/02/22 00:34:05;;;;;;;12.75;5.30;;;6.10;99.90;;;;;;5036334;28;20051;-84
2022/02/22 00:36:33;;;;;;;15.20;6.65;;;6.00;99.90;;;;;;5050287;28;20028;-83
2022/02/22 00:38:59;;;;;;;14.77;5.40;;;6.00;99.90;;;;;;5032568;28;20083;-84
2022/02/22 00:41:25;;;;;;;16.98;5.30;;;5.90;99.90;;;;;;5052852;28;20070;-83
2022/02/22 00:43:50;;;;;;;13.40;4.50;;;5.90;99.90;;;;;;5054191;28;20033;-84
2022/02/22 00:46:16;;;;;;;9.23;2.97;;;5.80;99.90;;;;;;5052350;28;20030;-85
2022/02/22 00:48:42;;;;;;;13.90;1.73;;;5.80;99.90;;;;;;5070962;28;20043;-82
2022/02/22 00:51:07;;;;;;;11.15;2.28;;;5.80;99.90;;;;;;5069607;28;20359;-84
2022/02/22 00:53:33;;;;;;;10.73;2.05;;;5.80;99.90;;;;;;5059332;28;20113;-85
2022/02/22 00:55:58;;;;;;;8.60;1.52;;;5.80;99.90;;;;;;5054952;28;20044;-87
2022/02/22 00:58:24;;;;;;;11.75;2.25;;;5.70;99.90;;;;;;5037521;28;20054;-85
2022/02/22 01:00:50;;;;;;;7.47;1.77;;;5.80;99.90;;;;;;5033052;28;20036;-85
2022/02/22 01:03:15;;;;;;;11.07;1.70;;;5.70;99.90;;;;;;5048400;28;20174;-83
2022/02/22 01:05:41;;;;;;;14.23;2.10;;;5.80;99.90;;;;;;5031977;28;20032;-84
2022/02/22 01:08:07;;;;;;;11.65;1.73;;;5.70;99.90;;;;;;5031189;28;20108;-83
2022/02/22 01:10:34;;;;;;;7.38;1.50;;;5.70;99.90;;;;;;5032394;28;20045;-83
2022/02/22 01:12:59;;;;;;;13.20;1.45;;;5.60;99.90;;;;;;5045339;28;20099;-83
2022/02/22 01:15:25;;;;;;;8.40;1.50;;;5.60;99.90;;;;;;5031887;28;20443;-82
2022/02/22 01:17:51;;;;;;;10.05;1.75;;;5.60;99.90;;;;;;5042671;28;20037;-83
2022/02/22 01:20:17;;;;;;;9.85;1.38;;;5.60;99.90;;;;;;5043363;28;20051;-84
2022/02/22 01:22:43;;;;;;;11.90;1.17;;;5.70;99.90;;;;;;5036381;28;20037;-84
2022/02/22 01:25:10;;;;;;;7.53;1.38;;;5.70;99.90;;;;;;5035588;28;20443;-84
2022/02/22 01:27:36;;;;;;;8.20;1.10;;;5.70;99.90;;;;;;5036379;28;20029;-84
2022/02/22 01:30:04;;;;;;;6.88;1.27;;;5.70;99.90;;;;;;5039011;28;20564;-85
2022/02/22 01:32:30;;;;;;;8.15;1.00;;;5.70;99.90;;;;;;5050913;28;20075;-87
2022/02/22 01:34:56;;;;;;;7.15;1.00;;;5.60;99.90;;;;;;5050827;28;20064;-80
2022/02/22 01:37:22;;;;;;;9.73;1.40;;;5.50;99.90;;;;;;5044253;28;20112;-84
2022/02/22 01:39:47;;;;;;;5.55;1.17;;;5.50;99.90;;;;;;5032868;28;20033;-87
2022/02/22 01:42:13;;;;;;;6.15;1.10;;;5.60;99.90;;;;;;5042463;28;20033;-85
2022/02/22 01:44:39;;;;;;;8.55;1.35;;;5.50;99.90;;;;;;5054853;28;20466;-83
2022/02/22 01:47:05;;;;;;;8.32;1.20;;;5.50;99.90;;;;;;5048940;28;20037;-83
2022/02/22 01:49:32;;;;;;;4.75;0.98;;;5.50;99.90;;;;;;5034584;28;20026;-84
2022/02/22 01:51:57;;;;;;;5.07;1.48;;;5.40;99.90;;;;;;5035397;28;20108;-81
2022/02/22 01:54:25;;;;;;;7.90;1.83;;;5.30;99.90;;;;;;5040341;28;20104;-83
2022/02/22 01:56:51;;;;;;;9.73;1.30;;;5.10;99.90;;;;;;5050390;28;20458;-78
2022/02/22 01:59:18;;;;;;;9.63;1.70;;;4.90;99.90;;;;;;5053439;28;20032;-84
2022/02/22 02:01:43;;;;;;;8.98;1.80;;;4.80;99.90;;;;;;5054362;28;20059;-84
2022/02/22 02:04:09;;;;;;;8.90;1.30;;;4.70;99.90;;;;;;5034142;28;20363;-83
2022/02/22 02:06:37;;;;;;;4.70;0.90;;;4.80;99.90;;;;;;5046257;28;20381;-84
2022/02/22 02:09:07;;;;;;;6.53;1.58;;;4.70;99.90;;;;;;5052510;28;20381;-84
2022/02/22 02:11:51;;;;;;;;;;;4.70;99.90;;;;;;5055412;28;20063;-83
2022/02/22 02:14:17;;;;;;;8.15;1.35;;;4.60;99.90;;;;;;5040042;28;20649;-82
2022/02/22 02:16:43;;;;;;;9.77;1.38;;;4.50;99.90;;;;;;5034050;28;20110;-79
2022/02/22 02:19:11;;;;;;;5.60;1.25;;;4.60;99.90;;;;;;5051647;28;20414;-82
2022/02/22 02:21:39;;;;;;;9.35;1.05;;;4.60;99.90;;;;;;5046120;28;20029;-81
2022/02/22 02:24:13;;;;;;;7.88;1.20;;;4.60;99.90;;;;;;5043904;28;20041;-83
2022/02/22 02:26:40;;;;;;;7.15;1.05;;;4.50;99.90;;;;;;5045611;28;20036;-83
2022/02/22 02:29:08;;;;;;;9.10;1.17;;;4.50;99.90;;;;;;5052304;28;20470;-87
2022/02/22 02:31:38;;;;;;;5.40;1.77;;;4.60;99.90;;;;;;5055209;28;20107;-87
2022/02/22 02:34:05;;;;;;;5.13;1.10;;;4.60;99.90;;;;;;5054201;28;20029;-86
2022/02/22 02:36:33;;;;;;;10.93;1.50;;;4.50;99.90;;;;;;5054515;28;20032;-84
2022/02/22 02:38:59;;;;;;;5.63;1.35;;;4.50;99.90;;;;;;5044223;28;20040;-74
2022/02/22 02:41:25;;;;;;;12.85;1.30;;;4.50;99.90;;;;;;5051055;28;20414;-85
2022/02/22 02:43:51;;;;;;;12.00;1.52;;;4.50;99.90;;;;;;5050758;28;20458;-82
2022/02/22 02:46:17;;;;;;;14.52;1.60;;;4.60;99.90;;;;;;5049802;28;20036;-82
2022/02/22 02:48:42;;;;;;;8.30;1.23;;;4.60;99.90;;;;;;5050617;28;20032;-82
2022/02/22 02:51:08;;;;;;;11.45;1.60;;;4.60;99.90;;;;;;5050653;28;20025;-82
2022/02/22 02:53:34;;;;;;;4.03;1.20;;;4.50;99.90;;;;;;5048274;28;20040;-82
2022/02/22 02:55:59;;;;;;;7.60;1.35;;;4.60;99.90;;;;;;5046762;28;20029;-78
2022/02/22 02:58:25;;;;;;;8.18;1.40;;;4.60;99.90;;;;;;5050444;28;20048;-81
2022/02/22 03:00:50;;;;;;;7.47;1.30;;;4.50;99.90;;;;;;5051204;28;20100;-82
2022/02/22 03:03:16;;;;;;;7.68;1.60;;;4.50;99.90;;;;;;5048572;28;20021;-83
2022/02/22 03:05:42;;;;;;;16.35;1.92;;;4.40;99.90;;;;;;5052395;28;20032;-83
2022/02/22 03:08:07;;;;;;;7.15;1.73;;;4.40;99.90;;;;;;5049715;28;20040;-82
2022/02/22 03:10:33;;;;;;;9.95;1.60;;;4.40;99.90;;;;;;5053870;28;20096;-82
2022/02/22 03:12:58;;;;;;;6.68;1.13;;;4.40;99.90;;;;;;5051850;28;20029;-74
2022/02/22 03:15:24;;;;;;;8.25;1.42;;;4.50;99.90;;;;;;5056745;28;20044;-82
2022/02/22 03:17:50;;;;;;;11.88;2.22;;;4.60;99.90;;;;;;5066402;28;20017;-74
2022/02/22 03:20:15;;;;;;;6.82;1.45;;;4.60;99.90;;;;;;5075788;28;20039;-74
2022/02/22 03:22:45;;;;;;;10.57;1.55;;;4.60;99.90;;;;;;5056630;28;20022;-83
2022/02/22 03:25:11;;;;;;;6.78;1.52;;;4.60;99.90;;;;;;5036878;28;20056;-83
2022/02/22 03:27:37;;;;;;;9.35;1.52;;;4.50;99.90;;;;;;5044339;28;20471;-85
2022/02/22 03:30:04;;;;;;;8.73;1.38;;;4.60;99.90;;;;;;5054576;28;20032;-85
2022/02/22 03:32:29;;;;;;;9.00;1.30;;;4.60;99.90;;;;;;5053196;28;20445;-86
2022/02/22 03:34:55;;;;;;;16.77;1.80;;;4.70;99.90;;;;;;5059083;28;20025;-76
2022/02/22 03:37:20;;;;;;;7.85;1.10;;;4.70;99.90;;;;;;5037284;28;20466;-85
2022/02/22 03:39:46;;;;;;;11.95;1.80;;;4.60;99.90;;;;;;5054944;28;20484;-86
2022/02/22 03:42:12;;;;;;;8.52;1.40;;;4.70;99.90;;;;;;5052326;28;20025;-78
2022/02/22 03:44:37;;;;;;;12.85;2.22;;;4.60;99.90;;;;;;5053025;28;20100;-85
2022/02/22 03:47:03;;;;;;;10.07;1.25;;;4.60;99.90;;;;;;5036332;28;20026;-84
2022/02/22 03:49:29;;;;;;;8.38;1.65;;;4.60;99.90;;;;;;5042817;28;20033;-84
2022/02/22 03:51:54;;;;;;;13.10;1.77;;;4.50;99.90;;;;;;5034299;28;20026;-85
2022/02/22 03:54:20;;;;;;;11.18;1.42;;;4.50;99.90;;;;;;5031599;28;20402;-84
2022/02/22 03:56:46;;;;;;;9.85;1.63;;;4.40;99.90;;;;;;5033081;28;20044;-82
2022/02/22 03:59:12;;;;;;;9.95;1.48;;;4.40;99.90;;;;;;5032831;28;20026;-84
2022/02/22 04:01:37;;;;;;;4.40;1.23;;;4.40;99.90;;;;;;5032729;28;20033;-83
2022/02/22 04:04:03;;;;;;;12.25;1.50;;;4.30;99.90;;;;;;5031629;28;20036;-83
2022/02/22 04:06:29;;;;;;;11.63;1.25;;;4.40;99.90;;;;;;5032452;28;20040;-83
2022/02/22 04:08:54;;;;;;;10.35;1.60;;;4.40;99.90;;;;;;5032443;28;20036;-84
2022/02/22 04:11:20;;;;;;;6.75;1.75;;;4.40;99.90;;;;;;5031311;28;20043;-83
2022/02/22 04:13:46;;;;;;;8.45;1.40;;;4.40;99.90;;;;;;5034081;28;20026;-81
2022/02/22 04:16:11;;;;;;;7.60;1.27;;;4.50;99.90;;;;;;5049363;28;20038;-79
2022/02/22 04:18:37;;;;;;;7.80;1.70;;;4.50;99.90;;;;;;5050832;28;20098;-84
2022/02/22 04:21:03;;;;;;;8.77;1.35;;;4.40;99.90;;;;;;5032910;28;20379;-82
2022/02/22 04:23:28;;;;;;;8.50;1.70;;;4.10;99.90;;;;;;5050283;28;20028;-83
2022/02/22 04:25:54;;;;;;;10.63;1.60;;;3.80;99.90;;;;;;5043710;28;20034;-79
2022/02/22 04:28:19;;;;;;;10.82;2.00;;;3.70;99.90;;;;;;5031959;28;20375;-80
2022/02/22 04:30:45;;;;;;;7.22;2.10;;;3.60;99.90;;;;;;5040803;28;20060;-80
2022/02/22 04:33:11;;;;;;;9.07;1.52;;;3.40;99.90;;;;;;5030783;28;20351;-79
2022/02/22 04:35:36;;;;;;;11.23;2.55;;;3.30;99.90;;;;;;5031577;28;20032;-81
2022/02/22 04:38:02;;;;;;;13.90;2.22;;;3.20;99.90;;;;;;5039001;28;20029;-81
2022/02/22 04:40:29;;;;;;;10.13;2.03;;;3.10;99.90;;;;;;5051470;28;20028;-82
2022/02/22 04:42:55;;;;;;;10.77;2.72;;;3.00;99.90;;;;;;5051400;28;20028;-81
2022/02/22 04:45:21;;;;;;;10.23;2.05;;;2.90;99.90;;;;;;5050347;28;20044;-81
2022/02/22 04:47:47;;;;;;;10.73;2.65;;;2.80;99.90;;;;;;5045667;28;20090;-81
2022/02/22 04:50:16;;;;;;;12.23;1.73;;;2.80;99.90;;;;;;5032238;28;20056;-83
2022/02/22 04:52:41;;;;;;;11.75;2.00;;;2.80;99.90;;;;;;5037979;28;20032;-83
2022/02/22 04:55:07;;;;;;;8.30;1.80;;;2.80;99.90;;;;;;5050241;28;20044;-80
2022/02/22 04:57:37;;;;;;;8.38;1.77;;;2.90;99.90;;;;;;5047419;28;20041;-84
2022/02/22 05:00:12;;;;;;;9.57;1.63;;;3.00;99.90;;;;;;5032521;28;20091;-83
2022/02/22 05:02:38;;;;;;;12.30;2.00;;;3.00;99.90;;;;;;5031483;28;20402;-80
2022/02/22 05:05:04;;;;;;;9.43;1.70;;;3.10;99.90;;;;;;5031338;28;20029;-80
2022/02/22 05:07:31;;;;;;;5.78;1.45;;;3.00;99.90;;;;;;5033792;28;20445;-81
2022/02/22 05:09:56;;;;;;;9.20;1.85;;;3.00;99.90;;;;;;5051602;28;20025;-80
2022/02/22 05:12:22;;;;;;;6.10;1.50;;;3.10;99.90;;;;;;5047380;28;20382;-80
2022/02/22 05:14:48;;;;;;;10.77;2.17;;;3.10;99.90;;;;;;5046040;28;20143;-80
2022/02/22 05:17:13;;;;;;;8.00;2.35;;;3.10;99.90;;;;;;5034230;28;20034;-79
2022/02/22 05:19:39;;;;;;;11.27;2.10;;;3.10;99.90;;;;;;5037000;28;20041;-84
2022/02/22 05:22:06;;;;;;;7.18;2.10;;;3.20;99.90;;;;;;5034957;28;20434;-76
2022/02/22 05:24:31;;;;;;;6.35;1.67;;;3.30;99.90;;;;;;5034610;28;20032;-78
2022/02/22 05:26:57;;;;;;;8.50;2.58;;;3.30;99.90;;;;;;5047249;28;20028;-77
2022/02/22 05:29:22;;;;;;;13.95;2.33;;;3.30;99.90;;;;;;5053282;28;20037;-77
2022/02/22 05:31:48;;;;;;;8.63;2.00;;;3.20;99.90;;;;;;5049962;28;20088;-78
2022/02/22 05:34:14;;;;;;;7.45;2.33;;;3.20;99.90;;;;;;5033667;28;20033;-78
2022/02/22 05:36:39;;;;;;;10.52;2.03;;;3.20;99.90;;;;;;5034037;28;20030;-78
2022/02/22 05:39:05;;;;;;;9.48;1.98;;;3.10;99.90;;;;;;5033421;28;20026;-77
2022/02/22 05:41:31;;;;;;;13.55;2.13;;;3.00;99.90;;;;;;5049598;28;20442;-78
2022/02/22 05:43:57;;;;;;;8.10;1.92;;;3.10;99.90;;;;;;5042480;28;20035;-78
2022/02/22 05:46:23;;;;;;;11.15;2.08;;;3.10;99.90;;;;;;5038566;28;20141;-77
2022/02/22 05:48:48;;;;;;;17.40;2.33;;;3.00;99.90;;;;;;5069420;28;20071;-72
2022/02/22 05:51:15;;;;;;;11.23;2.22;;;3.10;99.90;;;;;;5070536;28;20033;-83
2022/02/22 05:53:41;;;;;;;17.15;2.50;;;3.00;99.90;;;;;;5052959;28;20035;-78
2022/02/22 05:56:06;;;;;;;8.57;2.47;;;3.10;99.90;;;;;;5051737;28;20378;-76
2022/02/22 05:58:32;;;;;;;19.58;2.42;;;3.10;99.90;;;;;;5052454;28;20490;-78
2022/02/22 06:00:58;;;;;;;14.05;2.25;;;3.20;99.90;;;;;;5052269;28;20041;-77
2022/02/22 06:03:24;;;;;;;9.38;1.60;;;3.10;99.90;;;;;;5042291;28;20041;-84
2022/02/22 06:05:49;;;;;;;11.48;2.17;;;3.10;99.90;;;;;;5054371;28;20025;-84
2022/02/22 06:08:15;;;;;;;8.38;1.90;;;3.00;99.90;;;;;;5047693;28;20083;-84
2022/02/22 06:10:40;;;;;;;7.72;2.28;;;3.00;99.90;;;;;;5033966;28;20025;-83
2022/02/22 06:13:06;;;;;;;9.30;2.47;;;3.00;99.90;;;;;;5033885;28;20116;-82
2022/02/22 06:15:32;;;;;;;15.77;2.67;;;2.90;99.90;;;;;;5046280;28;20037;-84
2022/02/22 06:17:57;;;;;;;8.95;1.83;;;3.00;99.90;;;;;;5051473;28;20041;-85
2022/02/22 06:20:23;;;;;;;10.00;1.98;;;2.90;99.90;;;;;;5053135;28;20021;-87
2022/02/22 06:22:49;;;;;;;13.15;2.58;;;2.80;99.90;;;;;;5050196;28;20367;-79
2022/02/22 06:25:15;;;;;;;12.15;1.92;;;2.80;99.90;;;;;;5036952;28;20399;-73
2022/02/22 06:27:51;;;;;;;10.82;1.98;;;2.80;99.90;;;;;;5044285;28;20028;-74
2022/02/22 06:30:19;;;;;;;17.30;2.65;;;2.80;99.90;;;;;;5036316;28;20082;-73
2022/02/22 06:32:46;;;;;;;15.80;2.88;;;2.70;99.90;;;;;;5035236;28;20028;-74
2022/02/22 06:35:11;;;;;;;9.45;2.33;;;2.70;99.90;;;;;;5036972;28;20116;-71
2022/02/22 06:37:37;;;;;;;8.52;1.95;;;2.80;99.90;;;;;;5046737;28;20309;-74
2022/02/22 06:40:05;;;;;;;7.72;1.77;;;2.90;99.90;;;;;;5050898;28;20040;-69
2022/02/22 06:42:32;;;;;;;11.35;2.20;;;2.90;99.90;;;;;;5051356;28;20072;-76
2022/02/22 06:44:58;;;;;;;11.90;1.88;;;3.00;99.90;;;;;;5051274;28;20051;-72
2022/02/22 06:47:23;;;;;;;8.30;1.95;;;3.10;99.90;;;;;;5054626;28;20048;-74
2022/02/22 06:49:49;;;;;;;12.68;2.72;;;3.20;99.90;;;;;;5048161;28;20113;-75
2022/02/22 06:52:15;;;;;;;15.10;2.90;;;3.20;99.90;;;;;;5031975;28;20374;-75
2022/02/22 06:54:40;;;;;;;12.70;3.03;;;3.40;99.90;;;;;;5042637;28;20036;-73
2022/02/22 06:57:06;;;;;;;10.98;2.58;;;3.40;99.90;;;;;;5051627;28;20049;-77
2022/02/22 06:59:32;;;;;;;11.00;2.42;;;3.50;99.90;;;;;;5051827;28;20436;-74
2022/02/22 07:01:58;;;;;;;12.20;3.72;;;3.50;99.90;;;;;;5045722;28;20037;-79
2022/02/22 07:04:24;;;;;;;11.82;2.00;;;3.60;99.90;;;;;;5037778;28;20073;-72
2022/02/22 07:06:49;;;;;;;10.40;2.33;;;3.50;99.90;;;;;;5041419;28;20060;-74
2022/02/22 07:09:15;;;;;;;14.05;2.63;;;3.60;99.90;;;;;;5038206;28;20064;-74
2022/02/22 07:11:40;;;;;;;9.75;2.22;;;3.50;99.90;;;;;;5035301;28;20057;-74
2022/02/22 07:14:06;;;;;;;17.27;2.90;;;3.50;99.90;;;;;;5047613;28;20028;-73
2022/02/22 07:16:32;;;;;;;14.13;2.50;;;3.40;99.90;;;;;;5041212;28;20056;-73
2022/02/22 07:18:57;;;;;;;7.25;2.03;;;3.50;99.90;;;;;;5047309;28;20041;-73
2022/02/22 07:21:23;;;;;;;17.77;2.78;;;3.60;99.90;;;;;;5038715;28;20029;-78
2022/02/22 07:23:49;;;;;;;12.45;2.47;;;3.70;99.90;;;;;;5044603;28;20069;-79
2022/02/22 07:26:16;;;;;;;13.60;3.42;;;3.80;99.90;;;;;;5031528;28;20154;-75
2022/02/22 07:28:43;;;;;;;12.40;2.33;;;3.80;99.90;;;;;;5032599;28;20033;-73
2022/02/22 07:31:09;;;;;;;14.35;2.55;;;3.90;99.90;;;;;;5030875;28;20035;-72
2022/02/22 07:33:35;;;;;;;9.32;2.08;;;4.00;99.90;;;;;;5031366;28;20467;-74
2022/02/22 07:36:01;;;;;;;9.65;2.30;;;4.00;99.90;;;;;;5048651;28;20035;-74
2022/02/22 07:38:26;;;;;;;19.67;2.50;;;4.30;99.90;;;;;;5042782;28;20048;-74
2022/02/22 07:40:52;;;;;;;11.98;2.30;;;4.40;99.90;;;;;;5038582;28;20123;-73
2022/02/22 07:43:17;;;;;;;8.10;2.38;;;4.70;99.90;;;;;;5035633;28;20119;-74
2022/02/22 07:45:43;;;;;;;11.88;2.50;;;4.70;99.90;;;;;;5040150;28;20447;-73
2022/02/22 07:48:09;;;;;;;7.75;2.00;;;4.70;99.90;;;;;;5035074;28;20060;-72
2022/02/22 07:50:36;;;;;;;11.30;2.42;;;4.70;99.90;;;;;;5051449;28;20052;-72
2022/02/22 07:53:02;;;;;;;8.07;1.85;;;4.60;99.90;;;;;;5049632;28;20071;-74
2022/02/22 07:55:28;;;;;;;11.25;2.42;;;4.60;99.90;;;;;;5050144;28;20037;-73
2022/02/22 07:57:53;;;;;;;10.70;2.10;;;4.60;99.90;;;;;;5048485;28;20431;-73
2022/02/22 08:00:19;;;;;;;12.18;2.60;;;4.60;99.90;;;;;;5046066;28;20065;-70
2022/02/22 08:02:45;;;;;;;7.53;1.80;;;4.80;99.90;;;;;;5041656;28;20475;-72
2022/02/22 08:05:10;;;;;;;14.73;2.72;;;4.80;99.90;;;;;;5040333;28;20033;-73
2022/02/22 08:07:36;;;;;;;9.68;1.85;;;4.80;99.90;;;;;;5043514;28;20470;-72
2022/02/22 08:10:07;;;;;;;8.60;2.05;;;4.80;99.90;;;;;;5036512;28;20063;-72
2022/02/22 08:12:33;;;;;;;12.52;2.50;;;5.00;99.90;;;;;;5040898;28;20108;-73
2022/02/22 08:14:59;;;;;;;14.35;2.55;;;5.10;99.90;;;;;;5052188;28;20033;-72
2022/02/22 08:17:25;;;;;;;14.38;2.30;;;5.30;99.90;;;;;;5053985;28;20572;-75
2022/02/22 08:19:51;;;;;;;15.52;2.35;;;5.30;99.90;;;;;;5046998;28;20037;-75
2022/02/22 08:22:16;;;;;;;9.23;1.85;;;5.40;99.90;;;;;;5049455;28;20113;-75
2022/02/22 08:24:42;;;;;;;13.77;2.55;;;5.60;99.90;;;;;;5046534;28;20021;-74
2022/02/22 08:27:08;;;;;;;12.82;2.20;;;5.70;99.90;;;;;;5041943;28;20120;-75
2022/02/22 08:29:33;;;;;;;13.07;2.65;;;5.80;99.90;;;;;;5038440;28;20082;-71
2022/02/22 08:31:59;;;;;;;10.73;1.98;;;6.00;99.90;;;;;;5044753;28;20028;-75
2022/02/22 08:34:25;;;;;;;12.68;1.92;;;6.10;99.90;;;;;;5035609;28;20028;-75
2022/02/22 08:36:50;;;;;;;12.18;1.90;;;6.10;99.90;;;;;;5049037;28;20037;-74
2022/02/22 08:39:16;;;;;;;15.95;2.67;;;6.30;99.90;;;;;;5048407;28;20385;-76
2022/02/22 08:41:42;;;;;;;14.52;2.78;;;6.40;99.90;;;;;;5055307;28;20033;-74
2022/02/22 08:44:10;;;;;;;11.98;2.15;;;6.50;99.90;;;;;;5045718;28;20037;-74
2022/02/22 08:46:36;;;;;;;15.35;2.25;;;6.60;99.90;;;;;;5032381;28;20038;-75
2022/02/22 08:49:02;;;;;;;9.85;2.17;;;6.70;99.90;;;;;;5031446;28;20042;-74
2022/02/22 08:51:28;;;;;;;11.90;1.85;;;6.70;99.90;;;;;;5034774;28;20363;-76
2022/02/22 08:53:54;;;;;;;12.90;1.98;;;6.80;99.90;;;;;;5045611;28;20025;-71
2022/02/22 08:56:19;;;;;;;10.65;2.30;;;7.00;99.90;;;;;;5051697;28;20033;-72
2022/02/22 08:58:45;;;;;;;13.43;2.22;;;7.10;99.90;;;;;;5043337;28;20049;-74
2022/02/22 09:01:11;;;;;;;8.45;2.17;;;7.20;99.90;;;;;;5034630;28;20037;-73
2022/02/22 09:03:36;;;;;;;9.20;1.73;;;7.20;99.90;;;;;;5044341;28;20375;-75
2022/02/22 09:06:02;;;;;;;6.68;1.83;;;7.20;99.90;;;;;;5054593;28;20025;-73
2022/02/22 09:08:28;;;;;;;12.13;2.38;;;7.10;99.90;;;;;;5044747;28;20033;-73
2022/02/22 09:10:54;;;;;;;13.85;1.75;;;7.20;99.90;;;;;;5053041;28;20522;-73
2022/02/22 09:13:21;;;;;;;8.95;1.75;;;7.20;99.90;;;;;;5049567;28;20104;-72
2022/02/22 09:15:49;;;;;;;6.25;1.90;;;7.20;99.90;;;;;;5053089;28;20043;-73
2022/02/22 09:18:14;;;;;;;13.75;2.80;;;7.10;99.90;;;;;;5054018;28;20036;-74
2022/02/22 09:20:40;;;;;;;9.13;1.73;;;7.10;99.90;;;;;;5054455;28;20359;-74
2022/02/22 09:23:07;;;;;;;13.40;1.73;;;7.10;99.90;;;;;;5053118;28;20031;-75
2022/02/22 09:25:33;;;;;;;10.90;1.63;;;7.10;99.90;;;;;;5038539;28;20071;-74
2022/02/22 09:28:00;;;;;;;10.93;1.88;;;7.10;99.90;;;;;;5051359;28;20049;-74
2022/02/22 09:30:28;;;;;;;8.57;1.73;;;7.20;99.90;;;;;;5051862;28;20513;-74
2022/02/22 09:32:54;;;;;;;7.20;1.73;;;7.20;99.90;;;;;;5049198;28;20076;-74
2022/02/22 09:35:23;;;;;;;12.50;2.15;;;7.30;99.90;;;;;;5039092;28;20438;-74
2022/02/22 09:37:49;;;;;;;6.80;1.70;;;7.30;99.90;;;;;;5038874;28;20017;-75
2022/02/22 09:40:15;;;;;;;13.20;2.15;;;7.30;99.90;;;;;;5055921;28;20029;-74
2022/02/22 09:42:41;;;;;;;8.68;2.30;;;7.40;99.90;;;;;;5034454;28;20052;-75
2022/02/22 09:45:09;;;;;;;10.73;1.92;;;7.30;99.90;;;;;;5049427;28;20433;-70
2022/02/22 09:47:35;;;;;;;10.38;1.63;;;7.40;99.90;;;;;;5038737;28;20068;-75
2022/02/22 09:50:02;;;;;;;10.20;1.98;;;7.50;99.90;;;;;;5035180;28;20108;-75
2022/02/22 09:52:28;;;;;;;12.35;2.17;;;7.60;99.90;;;;;;5033651;28;20398;-75
2022/02/22 09:54:54;;;;;;;16.75;2.35;;;7.70;99.90;;;;;;5034438;28;20029;-75
2022/02/22 09:57:20;;;;;;;16.95;2.17;;;7.80;99.90;;;;;;5045097;28;20049;-75
2022/02/22 09:59:46;;;;;;;10.50;1.65;;;7.80;99.90;;;;;;5044094;28;20051;-75
2022/02/22 10:02:11;;;;;;;7.15;1.88;;;7.80;99.90;;;;;;5032565;28;20443;-75
2022/02/22 10:04:46;;;;;;;9.82;1.65;;;7.70;99.90;;;;;;5035398;28;20108;-75
2022/02/22 10:07:12;;;;;;;7.03;1.50;;;7.70;99.90;;;;;;5033391;28;20110;-74
2022/02/22 10:10:00;;;;;;;10.10;1.67;;;7.70;99.90;;;;;;5060029;28;20084;-74
2022/02/22 10:12:30;;;;;;;14.68;2.72;;;7.70;99.90;;;;;;5050547;28;20378;-74
2022/02/22 10:14:59;;;;;;;11.90;2.00;;;7.80;99.90;;;;;;5049275;28;20036;-74
2022/02/22 10:17:25;;;;;;;10.75;1.88;;;7.90;99.90;;;;;;5038913;28;20068;-75
2022/02/22 10:20:02;;;;;;;12.98;1.63;;;8.00;99.90;;;;;;5034294;28;20033;-75
2022/02/22 10:22:29;;;;;;;11.57;1.75;;;8.10;99.90;;;;;;5038810;28;20417;-75
2022/02/22 10:25:09;;;;;;;11.35;2.28;;;8.30;99.90;;;;;;5052207;28;20566;-75
2022/02/22 10:27:42;;;;;;;11.57;1.90;;;8.50;99.90;;;;;;5050163;28;20036;-75
2022/02/22 10:30:39;;;;;;;7.18;2.00;;;8.70;99.90;;;;;;5045592;28;20124;-71
2022/02/22 10:33:12;;;;;;;10.55;2.08;;;8.80;99.90;;;;;;5052397;28;20029;-75
2022/02/22 10:35:39;;;;;;;7.55;2.15;;;8.80;99.90;;;;;;5058894;28;20033;-76
2022/02/22 10:38:17;;;;;;;10.55;2.30;;;8.80;99.90;;;;;;5073743;28;20028;-74
2022/02/22 10:41:14;;;;;;;9.73;1.98;;;8.70;99.90;;;;;;5053439;28;20031;-75
2022/02/22 10:43:40;;;;;;;11.27;2.20;;;8.70;99.90;;;;;;5052685;28;20041;-75
2022/02/22 10:46:08;;;;;;;13.38;2.53;;;8.60;99.90;;;;;;5050251;28;20029;-75
2022/02/22 10:48:35;;;;;;;7.68;1.95;;;8.60;99.90;;;;;;5053240;28;20029;-75
2022/02/22 10:51:04;;;;;;;9.85;2.28;;;8.80;99.90;;;;;;5051962;28;20111;-75
2022/02/22 10:53:34;;;;;;;8.98;2.47;;;8.90;99.90;;;;;;5043915;28;20120;-75
2022/02/22 10:56:02;;;;;;;11.00;2.42;;;9.20;99.90;;;;;;5044030;28;20091;-74
2022/02/22 10:58:27;;;;;;;15.30;2.30;;;9.50;99.80;;;;;;5052367;28;20055;-75
2022/02/22 11:00:53;;;;;;;10.05;2.03;;;9.60;99.30;;;;;;5051600;28;20440;-76
2022/02/22 11:03:19;;;;;;;12.40;2.10;;;9.70;98.60;;;;;;5040616;28;20033;-75
2022/02/22 11:05:50;;;;;;;10.30;2.28;;;9.90;98.20;;;;;;5045774;28;20051;-75
2022/02/22 11:08:24;;;;;;;9.48;2.15;;;10.00;97.50;;;;;;5042688;28;20092;-74
2022/02/22 11:10:55;;;;;;;12.52;2.00;;;9.90;97.20;;;;;;5049393;28;20033;-74
2022/02/22 11:13:29;;;;;;;11.20;2.60;;;9.70;97.60;;;;;;5050300;28;20043;-75
2022/02/22 11:15:55;;;;;;;9.13;2.30;;;9.50;98.30;;;;;;5033720;28;20038;-75
2022/02/22 11:18:24;;;;;;;10.10;2.70;;;9.40;98.60;;;;;;5041192;28;20032;-76
2022/02/22 11:20:51;;;;;;;10.23;1.80;;;9.40;98.70;;;;;;5053137;28;20017;-76
2022/02/22 11:23:27;;;;;;;10.25;3.60;;;9.20;99.30;;;;;;5050093;28;20547;-76
2022/02/22 11:26:03;;;;;;;14.90;5.68;;;9.20;99.90;;;;;;5048709;28;20028;-76
2022/02/22 11:28:37;;;;;;;19.92;10.40;;;9.30;99.80;;;;;;5044663;28;20057;-75
2022/02/22 11:31:05;;;;;;;12.27;4.65;;;9.30;99.90;;;;;;5050004;28;20107;-76
2022/02/22 11:33:38;;;;;;;11.15;2.45;;;9.50;99.20;;;;;;5050661;28;20088;-75
2022/02/22 11:36:08;;;;;;;7.57;1.65;;;9.60;99.00;;;;;;5041655;28;20462;-75
2022/02/22 11:38:45;;;;;;;8.60;2.10;;;9.60;97.80;;;;;;5049030;28;20537;-76
2022/02/22 11:41:24;;;;;;;7.85;2.33;;;9.70;98.10;;;;;;5032208;28;20450;-71
2022/02/22 11:43:55;;;;;;;10.60;2.30;;;9.80;97.80;;;;;;5050514;28;20549;-73
2022/02/22 11:46:44;;;;;;;9.82;1.90;;;9.90;98.00;;;;;;5048311;28;20040;-73
2022/02/22 11:49:20;;;;;;;14.10;3.10;;;10.10;96.80;;;;;;5051962;28;20052;-76
2022/02/22 11:51:47;;;;;;;13.23;2.20;;;10.00;96.50;;;;;;5045552;28;20033;-77
2022/02/22 11:54:19;;;;;;;10.32;2.00;;;10.00;96.70;;;;;;5044196;28;20029;-76
2022/02/22 11:56:46;;;;;;;13.93;3.03;;;9.90;97.70;;;;;;5044465;28;20044;-75
2022/02/22 11:59:20;;;;;;;10.82;2.20;;;9.80;97.40;;;;;;5031873;28;20071;-72
2022/02/22 12:01:49;;;;;;;9.07;2.03;;;9.70;98.00;;;;;;5036071;28;20052;-76
2022/02/22 12:04:26;;;;;;;9.13;2.47;;;9.50;98.70;;;;;;5043769;28;20017;-76
2022/02/22 12:06:56;;;;;;;11.07;2.20;;;9.50;98.60;;;;;;5032335;28;20060;-77
2022/02/22 12:09:37;;;;;;;8.40;2.05;;;9.40;99.20;;;;;;5056536;28;20381;-77
2022/02/22 12:12:10;;;;;;;10.05;2.13;;;9.60;98.60;;;;;;5038792;28;20108;-76
2022/02/22 12:14:37;;;;;;;11.18;2.42;;;9.80;97.90;;;;;;5046009;28;20615;-76
2022/02/22 12:17:13;;;;;;;7.97;1.98;;;10.00;97.10;;;;;;5039146;28;20394;-76
2022/02/22 12:19:40;;;;;;;13.80;2.25;;;10.10;96.00;;;;;;5042767;28;20033;-76
2022/02/22 12:22:06;;;;;;;11.65;2.83;;;10.20;96.00;;;;;;5050435;28;20029;-76
2022/02/22 12:24:32;;;;;;;7.85;2.67;;;10.20;95.90;;;;;;5050881;28;20032;-76
2022/02/22 12:27:12;;;;;;;9.20;2.08;;;10.20;96.00;;;;;;5049769;28;20060;-75
2022/02/22 12:29:38;;;;;;;13.25;2.60;;;9.90;96.10;;;;;;5051934;28;20124;-82
2022/02/22 12:32:05;;;;;;;10.02;1.98;;;9.80;96.60;;;;;;5045146;28;20478;-76
2022/02/22 12:34:30;;;;;;;9.95;2.25;;;9.80;97.10;;;;;;5031753;28;20470;-82
2022/02/22 12:36:58;;;;;;;7.65;2.33;;;10.00;96.80;;;;;;5049154;28;20044;-83
2022/02/22 12:39:25;;;;;;;9.27;2.03;;;10.10;96.20;;;;;;5055322;28;20115;-84
2022/02/22 12:41:56;;;;;;;13.55;2.72;;;10.00;96.30;;;;;;5051494;28;20025;-78
2022/02/22 12:44:23;;;;;;;12.20;2.50;;;10.10;95.90;;;;;;5050930;28;20060;-85
2022/02/22 12:46:52;;;;;;;13.68;2.58;;;10.10;96.10;;;;;;5044641;28;20471;-77
2022/02/22 12:49:19;;;;;;;7.75;2.15;;;10.20;95.80;;;;;;5032063;28;20034;-76
2022/02/22 12:51:48;;;;;;;10.45;2.33;;;10.10;95.50;;;;;;5040722;28;20025;-76